Time;durP1;ratioP1;P1;durP2;ratioP2;P2;SDS_P1;SDS_P2;PMS_P1;PMS_P2;Temp;Humidity;BMP_temperature;BMP_pressure;BME280_temperature;BME280_humidity;BME280_pressure;Samples;Min_cycle;Max_cycle;Signal;HPM_P1;HPM_P2
2022/03/10 00:00:24;;;;;;;15.88;9.68;;;19.60;52.70;;;;;;5096562;28;20040;-72
2022/03/10 00:02:50;;;;;;;16.90;9.93;;;19.70;52.80;;;;;;5079436;28;20058;-71
2022/03/10 00:05:18;;;;;;;18.90;9.07;;;19.60;52.80;;;;;;5095893;28;20040;-71
2022/03/10 00:07:45;;;;;;;18.63;9.05;;;19.60;52.70;;;;;;5096409;28;20048;-72
2022/03/10 00:10:11;;;;;;;18.55;8.82;;;19.50;52.70;;;;;;5096446;28;20118;-72
2022/03/10 00:12:38;;;;;;;16.73;9.15;;;19.60;52.60;;;;;;5096840;28;20032;-72
2022/03/10 00:15:09;;;;;;;16.88;8.98;;;19.60;52.50;;;;;;5096439;28;20070;-72
2022/03/10 00:17:35;;;;;;;16.48;8.90;;;19.50;52.30;;;;;;5075270;28;20104;-71
2022/03/10 00:20:03;;;;;;;14.57;9.30;;;19.50;52.10;;;;;;5096382;28;20067;-73
2022/03/10 00:22:29;;;;;;;14.25;8.75;;;19.60;52.00;;;;;;5096460;28;20048;-71
2022/03/10 00:24:55;;;;;;;13.75;8.25;;;19.70;52.00;;;;;;5096142;28;20083;-72
2022/03/10 00:27:21;;;;;;;15.93;8.38;;;19.60;51.80;;;;;;5096023;28;20040;-71
2022/03/10 00:29:47;;;;;;;16.63;8.40;;;19.60;51.70;;;;;;5077540;28;20052;-71
2022/03/10 00:32:13;;;;;;;18.45;9.43;;;19.60;51.70;;;;;;5096034;28;20079;-72
2022/03/10 00:34:39;;;;;;;15.43;9.63;;;19.50;51.70;;;;;;5096046;28;20037;-73
2022/03/10 00:37:05;;;;;;;15.15;8.60;;;19.60;51.70;;;;;;5086832;28;20036;-71
2022/03/10 00:39:31;;;;;;;14.20;8.13;;;19.70;51.90;;;;;;5079210;28;20060;-71
2022/03/10 00:41:58;;;;;;;17.42;9.43;;;19.60;51.90;;;;;;5096140;28;20048;-70
2022/03/10 00:44:25;;;;;;;16.17;9.45;;;19.50;52.00;;;;;;5096388;28;20062;-72
2022/03/10 00:46:51;;;;;;;11.75;7.53;;;19.40;52.00;;;;;;5096180;28;20055;-71
2022/03/10 00:49:17;;;;;;;13.82;7.63;;;19.60;52.20;;;;;;5079218;28;20044;-72
2022/03/10 00:51:45;;;;;;;8.85;6.20;;;19.50;52.20;;;;;;5095253;28;20047;-72
2022/03/10 00:54:11;;;;;;;16.88;8.02;;;19.50;52.20;;;;;;5095958;28;20059;-72
2022/03/10 00:56:37;;;;;;;14.40;8.23;;;19.50;52.20;;;;;;5096222;28;20044;-71
2022/03/10 00:59:03;;;;;;;13.73;7.82;;;19.40;52.10;;;;;;5096012;28;20036;-71
2022/03/10 01:01:29;;;;;;;15.68;7.32;;;19.50;52.20;;;;;;5095915;28;20079;-71
2022/03/10 01:03:56;;;;;;;15.32;8.32;;;19.40;51.90;;;;;;5096226;28;20070;-72
2022/03/10 01:06:22;;;;;;;16.58;8.48;;;19.40;51.70;;;;;;5095509;28;20033;-71
2022/03/10 01:08:48;;;;;;;14.70;8.40;;;19.40;51.60;;;;;;5096401;28;20037;-72
2022/03/10 01:11:15;;;;;;;12.32;8.10;;;19.50;51.50;;;;;;5095443;28;20047;-71
2022/03/10 01:13:41;;;;;;;12.73;7.70;;;19.40;51.30;;;;;;5095856;28;20036;-72
2022/03/10 01:16:07;;;;;;;16.02;8.77;;;19.40;51.20;;;;;;5077949;28;20029;-71
2022/03/10 01:18:33;;;;;;;13.15;8.05;;;19.50;51.20;;;;;;5078586;28;20039;-72
2022/03/10 01:21:00;;;;;;;12.90;8.45;;;19.40;51.00;;;;;;5094932;28;20115;-72
2022/03/10 01:23:26;;;;;;;13.80;8.43;;;19.40;50.90;;;;;;5095285;28;20053;-72
2022/03/10 01:25:52;;;;;;;14.18;8.80;;;19.40;50.90;;;;;;5094816;28;20040;-71
2022/03/10 01:28:18;;;;;;;16.50;8.38;;;19.40;50.90;;;;;;5095315;28;20071;-71
2022/03/10 01:30:45;;;;;;;15.52;7.95;;;19.40;51.10;;;;;;5093860;28;20115;-71
2022/03/10 01:33:12;;;;;;;11.10;6.18;;;19.50;51.30;;;;;;5094812;28;20044;-71
2022/03/10 01:35:38;;;;;;;12.38;6.75;;;19.40;51.30;;;;;;5095053;28;20035;-71
2022/03/10 01:38:04;;;;;;;11.45;6.75;;;19.40;51.40;;;;;;5095547;28;20047;-71
2022/03/10 01:40:32;;;;;;;10.10;6.00;;;19.30;51.40;;;;;;5094038;28;20032;-71
2022/03/10 01:42:58;;;;;;;11.98;6.80;;;19.30;51.50;;;;;;5097673;28;20040;-73
2022/03/10 01:45:24;;;;;;;12.77;6.22;;;19.30;51.40;;;;;;5097683;28;20036;-72
2022/03/10 01:47:50;;;;;;;12.98;6.40;;;19.30;51.50;;;;;;5099067;28;20052;-70
2022/03/10 01:50:16;;;;;;;14.63;8.15;;;19.20;51.40;;;;;;5099012;28;20047;-71
2022/03/10 01:52:44;;;;;;;11.73;6.68;;;19.30;51.50;;;;;;5098405;28;20044;-71
2022/03/10 01:55:11;;;;;;;10.77;6.82;;;19.30;51.10;;;;;;5098726;28;20032;-72
2022/03/10 01:57:37;;;;;;;13.00;7.00;;;19.30;51.00;;;;;;5099284;28;20060;-72
2022/03/10 02:00:07;;;;;;;10.15;6.43;;;19.30;50.80;;;;;;5098914;28;20060;-71
2022/03/10 02:02:34;;;;;;;12.70;6.47;;;19.40;50.70;;;;;;5098868;28;20067;-71
2022/03/10 02:05:00;;;;;;;11.70;7.05;;;19.40;50.60;;;;;;5099280;28;20041;-71
2022/03/10 02:10:17;;;;;;;13.95;7.18;;;19.40;50.40;;;;;;5087108;28;20045;-73
2022/03/10 02:12:48;;;;;;;9.15;5.72;;;19.40;50.30;;;;;;5098230;28;20051;-72
2022/03/10 02:18:10;;;;;;;10.95;6.00;;;19.30;50.40;;;;;;5072914;28;20108;-71
2022/03/10 02:20:38;;;;;;;13.07;6.22;;;19.50;50.60;;;;;;5098600;28;20113;-73
2022/03/10 02:23:06;;;;;;;9.02;6.18;;;19.30;50.70;;;;;;5098536;28;20074;-72
2022/03/10 02:25:33;;;;;;;8.50;5.88;;;19.40;50.80;;;;;;5098776;28;20037;-71
2022/03/10 02:28:00;;;;;;;10.02;6.07;;;19.30;50.90;;;;;;5098620;28;20068;-72
2022/03/10 02:30:29;;;;;;;8.13;5.97;;;19.20;50.90;;;;;;5098270;28;20047;-71
2022/03/10 02:32:55;;;;;;;8.55;5.82;;;19.20;50.90;;;;;;5097733;28;20072;-71
2022/03/10 02:35:22;;;;;;;9.23;6.03;;;19.30;51.00;;;;;;5098443;28;20041;-72
2022/03/10 02:37:49;;;;;;;8.90;6.15;;;19.10;50.90;;;;;;5098286;28;20071;-71
2022/03/10 02:40:17;;;;;;;10.07;6.63;;;19.10;50.90;;;;;;5097986;28;20066;-72
2022/03/10 02:42:43;;;;;;;9.15;6.60;;;19.20;50.80;;;;;;5097909;28;20051;-70
2022/03/10 02:45:10;;;;;;;11.32;6.82;;;19.20;50.50;;;;;;5097744;28;20052;-73
2022/03/10 02:47:36;;;;;;;10.27;6.32;;;19.20;50.40;;;;;;5098051;28;20064;-73
2022/03/10 02:50:06;;;;;;;10.43;6.45;;;19.20;50.20;;;;;;5097931;28;20062;-73
2022/03/10 02:52:39;;;;;;;10.85;5.80;;;19.20;50.10;;;;;;5096915;28;20096;-71
2022/03/10 02:55:07;;;;;;;8.00;5.15;;;19.30;50.10;;;;;;5098260;28;20064;-71
2022/03/10 02:57:34;;;;;;;8.75;5.05;;;19.30;50.00;;;;;;5098015;28;20036;-71
2022/03/10 03:00:01;;;;;;;7.53;4.95;;;19.20;49.80;;;;;;5097501;28;20048;-73
2022/03/10 03:02:27;;;;;;;9.48;5.55;;;19.20;49.70;;;;;;5097501;28;20110;-71
2022/03/10 03:04:54;;;;;;;10.02;6.93;;;19.30;49.80;;;;;;5097971;28;20053;-71
2022/03/10 03:07:20;;;;;;;11.68;6.38;;;19.20;49.80;;;;;;5096944;28;20044;-72
2022/03/10 03:09:46;;;;;;;9.30;5.53;;;19.20;49.90;;;;;;5097315;28;20096;-71
2022/03/10 03:12:12;;;;;;;8.73;5.82;;;19.20;50.20;;;;;;5096315;28;20040;-72
2022/03/10 03:14:38;;;;;;;8.25;5.75;;;19.10;50.30;;;;;;5097210;28;20037;-72
2022/03/10 03:17:04;;;;;;;8.85;5.85;;;19.10;50.30;;;;;;5096896;28;20033;-71
2022/03/10 03:19:31;;;;;;;6.97;5.10;;;19.10;50.40;;;;;;5097850;28;20056;-72
2022/03/10 03:21:57;;;;;;;9.27;6.05;;;19.00;50.50;;;;;;5097178;28;20032;-72
2022/03/10 03:24:23;;;;;;;9.82;6.07;;;19.00;50.60;;;;;;5097311;28;20051;-70
2022/03/10 03:26:49;;;;;;;8.00;5.68;;;19.00;50.50;;;;;;5080188;28;20130;-71
2022/03/10 03:29:16;;;;;;;10.68;5.82;;;19.00;50.60;;;;;;5097688;28;20040;-71
2022/03/10 03:31:43;;;;;;;13.10;5.72;;;19.00;50.40;;;;;;5096868;28;20048;-71
2022/03/10 03:34:12;;;;;;;10.57;6.28;;;19.00;50.20;;;;;;5097500;28;20067;-72
2022/03/10 03:36:39;;;;;;;11.90;6.55;;;19.10;50.10;;;;;;5096603;28;20071;-71
2022/03/10 03:39:06;;;;;;;10.57;6.13;;;19.10;49.90;;;;;;5096288;28;20048;-71
2022/03/10 03:41:33;;;;;;;10.50;6.07;;;19.00;49.80;;;;;;5105664;28;20067;-73
2022/03/10 03:43:59;;;;;;;8.50;5.63;;;19.00;49.70;;;;;;5117233;28;20061;-72
2022/03/10 03:46:26;;;;;;;9.93;5.97;;;19.00;49.60;;;;;;5104717;28;20049;-72
2022/03/10 03:48:52;;;;;;;8.02;5.57;;;19.10;49.70;;;;;;5079433;28;20059;-71
2022/03/10 03:51:18;;;;;;;10.80;6.03;;;19.20;49.60;;;;;;5094937;28;20036;-72
2022/03/10 03:53:44;;;;;;;9.57;6.10;;;19.10;49.70;;;;;;5096686;28;20056;-71
2022/03/10 03:56:10;;;;;;;10.77;6.72;;;19.10;49.80;;;;;;5090877;28;20104;-72
2022/03/10 03:58:36;;;;;;;9.00;5.57;;;19.10;49.90;;;;;;5065638;28;20047;-73
2022/03/10 04:01:02;;;;;;;9.85;5.47;;;18.90;49.90;;;;;;5089116;28;20060;-72
2022/03/10 04:03:28;;;;;;;10.43;5.50;;;18.90;50.10;;;;;;5066976;28;20048;-71
2022/03/10 04:05:55;;;;;;;8.82;6.00;;;19.00;50.20;;;;;;5076833;28;20096;-71
2022/03/10 04:08:21;;;;;;;9.52;6.22;;;19.00;50.30;;;;;;5078613;28;20101;-70
2022/03/10 04:10:49;;;;;;;6.78;5.75;;;18.80;50.30;;;;;;5096153;28;20044;-72
2022/03/10 04:13:15;;;;;;;10.10;5.85;;;18.90;50.40;;;;;;5095494;28;20078;-71
2022/03/10 04:15:41;;;;;;;9.07;5.55;;;18.80;50.30;;;;;;5095749;28;20044;-72
2022/03/10 04:18:07;;;;;;;7.78;5.47;;;18.90;50.50;;;;;;5096875;28;20044;-71
2022/03/10 04:20:33;;;;;;;10.57;5.70;;;18.90;50.30;;;;;;5114230;28;20103;-72
2022/03/10 04:22:59;;;;;;;9.93;6.00;;;18.80;50.00;;;;;;5096688;28;20072;-73
2022/03/10 04:25:25;;;;;;;8.68;5.47;;;18.90;49.80;;;;;;5096362;28;20051;-72
2022/03/10 04:27:53;;;;;;;7.20;5.05;;;19.00;49.70;;;;;;5096377;28;20063;-72
2022/03/10 04:30:23;;;;;;;8.07;6.40;;;19.00;49.50;;;;;;5095661;28;20052;-72
2022/03/10 04:32:50;;;;;;;10.32;5.78;;;18.90;49.30;;;;;;5095906;28;20051;-71
2022/03/10 04:35:19;;;;;;;8.32;5.63;;;19.00;49.30;;;;;;5096262;28;20044;-71
2022/03/10 04:37:51;;;;;;;7.65;5.55;;;19.00;49.40;;;;;;5096629;28;20120;-71
2022/03/10 04:40:17;;;;;;;8.80;6.40;;;19.20;49.30;;;;;;5096584;28;20048;-72
2022/03/10 04:42:43;;;;;;;7.38;5.75;;;19.10;49.40;;;;;;5096935;28;20028;-71
2022/03/10 04:45:10;;;;;;;9.23;6.55;;;19.10;49.30;;;;;;5096790;28;20074;-71
2022/03/10 04:47:37;;;;;;;9.68;6.53;;;19.00;49.40;;;;;;5096869;28;20041;-71
2022/03/10 04:50:05;;;;;;;10.13;6.32;;;19.00;49.50;;;;;;5096461;28;20041;-71
2022/03/10 04:52:31;;;;;;;9.55;5.93;;;19.00;49.50;;;;;;5096613;28;20127;-71
2022/03/10 04:54:57;;;;;;;8.07;6.10;;;19.00;49.70;;;;;;5096504;28;20036;-71
2022/03/10 04:57:26;;;;;;;8.65;5.43;;;18.90;50.00;;;;;;5096385;28;20040;-72
2022/03/10 04:59:53;;;;;;;15.45;6.57;;;18.90;50.00;;;;;;5096480;28;20047;-73
2022/03/10 05:02:19;;;;;;;10.25;6.65;;;18.80;49.90;;;;;;5095593;28;20048;-71
2022/03/10 05:04:45;;;;;;;12.20;7.43;;;18.80;49.90;;;;;;5095656;28;20074;-71
2022/03/10 05:07:12;;;;;;;11.07;6.88;;;18.80;49.80;;;;;;5095822;28;20101;-71
2022/03/10 05:09:38;;;;;;;9.48;6.20;;;18.90;49.80;;;;;;5095582;28;20044;-71
2022/03/10 05:12:05;;;;;;;11.77;6.65;;;18.90;49.60;;;;;;5095362;28;20048;-71
2022/03/10 05:14:31;;;;;;;11.95;6.90;;;18.90;49.50;;;;;;5095639;28;20037;-71
2022/03/10 05:16:58;;;;;;;12.05;7.10;;;19.00;49.20;;;;;;5097438;28;20108;-71
2022/03/10 05:19:24;;;;;;;10.50;6.25;;;19.00;49.30;;;;;;5099324;28;20036;-71
2022/03/10 05:21:50;;;;;;;11.43;6.20;;;19.20;49.00;;;;;;5099279;28;20064;-71
2022/03/10 05:24:17;;;;;;;8.98;6.07;;;19.10;48.90;;;;;;5099421;28;20041;-71
2022/03/10 05:26:43;;;;;;;9.98;7.38;;;19.10;48.80;;;;;;5099384;28;20048;-71
2022/03/10 05:29:11;;;;;;;10.77;6.53;;;19.10;48.70;;;;;;5098987;28;20091;-71
2022/03/10 05:31:39;;;;;;;9.95;6.30;;;19.10;48.40;;;;;;5099049;28;20032;-71
2022/03/10 05:34:06;;;;;;;9.43;6.32;;;19.10;48.70;;;;;;5098628;28;20044;-71
2022/03/10 05:36:32;;;;;;;13.73;7.20;;;19.20;48.70;;;;;;5099126;28;20100;-71
2022/03/10 05:38:58;;;;;;;10.35;7.15;;;19.30;48.60;;;;;;5098996;28;20036;-71
2022/03/10 05:41:24;;;;;;;10.30;6.72;;;19.30;48.90;;;;;;5098817;28;20090;-71
2022/03/10 05:43:50;;;;;;;10.57;5.70;;;19.10;49.00;;;;;;5099154;28;20044;-71
2022/03/10 05:46:16;;;;;;;11.27;7.30;;;19.10;49.30;;;;;;5098945;28;20040;-71
2022/03/10 05:48:42;;;;;;;8.65;6.25;;;19.10;49.50;;;;;;5099112;28;20037;-71
2022/03/10 05:51:10;;;;;;;8.50;5.90;;;19.10;49.60;;;;;;5098744;28;20045;-71
2022/03/10 05:53:36;;;;;;;11.15;6.68;;;19.20;49.40;;;;;;5098787;28;20040;-71
2022/03/10 05:56:02;;;;;;;9.77;6.07;;;19.10;49.50;;;;;;5098901;28;20045;-71
2022/03/10 05:58:28;;;;;;;10.15;6.53;;;19.10;49.60;;;;;;5098721;28;20108;-70
2022/03/10 06:00:54;;;;;;;9.57;6.20;;;19.10;49.40;;;;;;5098328;28;20045;-71
2022/03/10 06:03:20;;;;;;;11.20;6.70;;;19.20;49.30;;;;;;5098466;28;20045;-71
2022/03/10 06:05:46;;;;;;;11.68;6.03;;;19.20;48.90;;;;;;5098636;28;20056;-71
2022/03/10 06:08:12;;;;;;;7.95;5.78;;;19.20;48.80;;;;;;5098463;28;20050;-70
2022/03/10 06:10:39;;;;;;;8.80;5.32;;;19.30;48.80;;;;;;5080851;28;20044;-72
2022/03/10 06:13:06;;;;;;;9.38;4.03;;;19.30;48.70;;;;;;5097822;28;20052;-71
2022/03/10 06:15:32;;;;;;;9.15;5.13;;;19.40;48.50;;;;;;5082859;28;20009;-73
2022/03/10 06:17:58;;;;;;;9.57;5.75;;;19.50;50.50;;;;;;5098237;28;20028;-72
2022/03/10 06:20:25;;;;;;;7.60;5.40;;;19.70;52.50;;;;;;5097902;28;20043;-72
2022/03/10 06:22:52;;;;;;;7.68;5.03;;;19.60;52.80;;;;;;5080642;28;20045;-71
2022/03/10 06:25:18;;;;;;;11.05;7.25;;;19.70;53.70;;;;;;5098051;28;20104;-72
2022/03/10 06:27:44;;;;;;;9.48;5.80;;;19.60;55.20;;;;;;5096707;28;20044;-71
2022/03/10 06:30:11;;;;;;;7.93;4.57;;;19.70;56.90;;;;;;5097746;28;20045;-72
2022/03/10 06:32:37;;;;;;;8.38;6.47;;;19.70;57.40;;;;;;5097786;28;20130;-71
2022/03/10 06:35:04;;;;;;;8.82;5.55;;;19.80;57.30;;;;;;5097069;28;20032;-71
2022/03/10 06:37:30;;;;;;;7.60;5.28;;;19.60;57.40;;;;;;5097835;28;20052;-72
2022/03/10 06:39:56;;;;;;;8.95;4.10;;;19.70;58.50;;;;;;5097647;28;20063;-71
2022/03/10 06:42:23;;;;;;;14.77;7.05;;;19.80;58.60;;;;;;5096700;28;20041;-71
2022/03/10 06:44:49;;;;;;;7.90;4.70;;;19.70;58.60;;;;;;5079656;28;20078;-71
2022/03/10 06:47:16;;;;;;;8.65;4.65;;;19.70;43.80;;;;;;5097621;28;20055;-71
2022/03/10 06:49:42;;;;;;;10.57;5.28;;;20.00;42.50;;;;;;5094575;28;20041;-71
2022/03/10 06:52:09;;;;;;;8.35;3.67;;;20.10;41.80;;;;;;5079831;28;20044;-71
2022/03/10 06:54:36;;;;;;;5.90;3.75;;;20.30;40.80;;;;;;5097372;28;20032;-70
2022/03/10 06:57:02;;;;;;;5.35;3.70;;;20.30;39.10;;;;;;5097152;28;20071;-71
2022/03/10 06:59:28;;;;;;;8.52;4.90;;;20.30;40.10;;;;;;5080200;28;20040;-72
2022/03/10 07:01:54;;;;;;;7.30;4.20;;;20.50;40.80;;;;;;5097153;28;20052;-71
2022/03/10 07:04:20;;;;;;;36.10;16.40;;;20.50;38.70;;;;;;5097541;28;20127;-72
2022/03/10 07:06:47;;;;;;;20.30;10.20;;;20.60;38.40;;;;;;5097647;28;20047;-71
2022/03/10 07:09:14;;;;;;;9.52;4.70;;;20.60;39.00;;;;;;5097356;28;20048;-73
2022/03/10 07:11:40;;;;;;;11.00;5.38;;;20.60;40.20;;;;;;5097156;28;20048;-70
2022/03/10 07:14:06;;;;;;;13.57;8.32;;;20.70;39.60;;;;;;5080229;28;20036;-71
2022/03/10 07:16:33;;;;;;;12.98;7.07;;;20.70;41.30;;;;;;5097282;28;20040;-70
2022/03/10 07:18:59;;;;;;;28.13;14.20;;;20.80;40.10;;;;;;5097116;28;20041;-71
2022/03/10 07:21:26;;;;;;;7.78;4.32;;;20.80;38.60;;;;;;5096972;28;20044;-72
2022/03/10 07:23:52;;;;;;;9.52;5.60;;;20.80;37.90;;;;;;5097023;28;20111;-72
2022/03/10 07:26:18;;;;;;;24.35;12.15;;;20.80;36.80;;;;;;5097099;28;20098;-73
2022/03/10 07:28:44;;;;;;;21.50;9.82;;;20.90;38.00;;;;;;5097180;28;20044;-72
2022/03/10 07:31:10;;;;;;;11.20;5.82;;;20.90;36.10;;;;;;5096598;28;20044;-72
2022/03/10 07:33:36;;;;;;;10.95;7.65;;;20.90;50.80;;;;;;5096979;28;20048;-72
2022/03/10 07:36:03;;;;;;;8.45;5.18;;;21.00;52.40;;;;;;5097013;28;20043;-72
2022/03/10 07:38:29;;;;;;;15.95;10.88;;;21.00;52.20;;;;;;5096017;28;20036;-73
2022/03/10 07:40:57;;;;;;;7.55;3.97;;;21.00;52.50;;;;;;5096040;28;20128;-73
2022/03/10 07:43:24;;;;;;;7.97;5.03;;;21.00;52.60;;;;;;5096686;28;20036;-73
2022/03/10 07:45:50;;;;;;;4.32;2.92;;;21.10;53.50;;;;;;5096592;28;20051;-74
2022/03/10 07:48:17;;;;;;;6.97;4.70;;;21.20;52.50;;;;;;5096716;28;20044;-74
2022/03/10 07:50:44;;;;;;;6.75;3.92;;;21.30;50.50;;;;;;5096449;28;20041;-75
2022/03/10 07:53:10;;;;;;;10.82;3.70;;;21.30;48.90;;;;;;5096391;28;20041;-74
2022/03/10 07:55:37;;;;;;;7.53;4.97;;;21.30;47.60;;;;;;5096524;28;20044;-75
2022/03/10 07:58:03;;;;;;;6.03;3.40;;;21.40;46.80;;;;;;5096413;28;21007;-75
2022/03/10 08:00:31;;;;;;;8.05;4.82;;;21.30;45.30;;;;;;5096075;28;20051;-75
2022/03/10 08:02:57;;;;;;;4.03;2.65;;;21.40;44.40;;;;;;5096161;28;20071;-75
2022/03/10 08:05:23;;;;;;;4.22;3.25;;;21.50;43.30;;;;;;5095984;28;20040;-74
2022/03/10 08:07:49;;;;;;;6.40;4.60;;;21.50;42.50;;;;;;5078762;28;20029;-74
2022/03/10 08:10:15;;;;;;;4.53;3.42;;;21.60;42.10;;;;;;5095913;28;20107;-73
2022/03/10 08:12:41;;;;;;;7.95;5.50;;;21.40;42.30;;;;;;5095945;28;20052;-74
2022/03/10 08:15:08;;;;;;;6.63;5.07;;;21.50;42.20;;;;;;5096144;28;20082;-75
2022/03/10 08:17:34;;;;;;;33.00;16.90;;;21.40;43.20;;;;;;5096083;28;20048;-73
2022/03/10 08:20:00;;;;;;;15.40;6.57;;;21.30;43.90;;;;;;5096012;28;20032;-74
2022/03/10 08:22:26;;;;;;;7.93;5.65;;;21.10;45.00;;;;;;5095441;28;20036;-76
2022/03/10 08:24:52;;;;;;;7.00;5.50;;;21.20;45.10;;;;;;5106346;28;20043;-75
2022/03/10 08:27:24;;;;;;;5.88;4.20;;;21.10;45.70;;;;;;5116238;28;20100;-75
2022/03/10 08:29:52;;;;;;;5.60;4.15;;;21.00;46.50;;;;;;5116477;28;20051;-72
2022/03/10 08:32:19;;;;;;;4.43;3.58;;;21.10;46.80;;;;;;5110624;28;20037;-73
2022/03/10 08:34:45;;;;;;;8.98;6.35;;;21.00;47.20;;;;;;5095893;28;20078;-73
2022/03/10 08:37:11;;;;;;;10.05;7.50;;;21.00;45.90;;;;;;5095792;28;20066;-74
2022/03/10 08:39:37;;;;;;;7.18;5.82;;;20.80;48.10;;;;;;5095785;28;20378;-74
2022/03/10 08:42:05;;;;;;;7.32;4.38;;;20.80;48.80;;;;;;5095707;28;20041;-74
2022/03/10 08:44:31;;;;;;;5.47;4.22;;;20.70;49.30;;;;;;5095945;28;20070;-73
2022/03/10 08:46:57;;;;;;;6.88;5.35;;;20.80;43.60;;;;;;5095736;28;20060;-74
2022/03/10 08:49:23;;;;;;;5.57;4.90;;;21.00;36.90;;;;;;5095988;28;20084;-74
2022/03/10 08:51:50;;;;;;;7.90;4.45;;;21.20;36.70;;;;;;5097179;28;20102;-72
2022/03/10 08:54:17;;;;;;;5.22;3.58;;;21.50;37.70;;;;;;5099383;28;20071;-72
2022/03/10 08:56:43;;;;;;;5.72;4.80;;;21.70;37.40;;;;;;5099277;28;20041;-73
2022/03/10 08:59:09;;;;;;;6.93;4.97;;;21.80;44.50;;;;;;5099188;28;20511;-72
2022/03/10 09:01:35;;;;;;;7.03;4.72;;;21.80;45.20;;;;;;5098981;28;20074;-72
2022/03/10 09:04:02;;;;;;;6.03;4.45;;;21.60;45.40;;;;;;5099670;28;20044;-71
2022/03/10 09:06:29;;;;;;;7.53;5.80;;;21.60;45.80;;;;;;5099371;28;20099;-71
2022/03/10 09:08:55;;;;;;;7.85;4.50;;;21.50;47.00;;;;;;5099187;28;20044;-71
2022/03/10 09:11:22;;;;;;;6.28;5.38;;;21.30;46.90;;;;;;5099083;28;20032;-70
2022/03/10 09:13:48;;;;;;;5.90;4.57;;;21.20;47.30;;;;;;5099325;28;20068;-71
2022/03/10 09:16:16;;;;;;;7.00;4.30;;;21.20;48.80;;;;;;5098903;28;20119;-71
2022/03/10 09:18:45;;;;;;;8.43;5.28;;;21.20;50.70;;;;;;5099175;28;20041;-71
2022/03/10 09:21:16;;;;;;;9.52;5.93;;;21.30;53.60;;;;;;5099116;28;20038;-73
2022/03/10 09:23:42;;;;;;;6.30;3.92;;;21.30;52.60;;;;;;5098255;28;20045;-73
2022/03/10 09:26:08;;;;;;;6.88;3.97;;;21.30;52.10;;;;;;5098759;28;20055;-73
2022/03/10 09:28:34;;;;;;;6.07;4.85;;;21.30;51.90;;;;;;5098943;28;20047;-73
2022/03/10 09:31:01;;;;;;;6.25;5.30;;;21.30;50.90;;;;;;5098622;28;20107;-74
2022/03/10 09:33:28;;;;;;;6.78;5.10;;;21.40;51.90;;;;;;5098694;28;20037;-72
2022/03/10 09:35:56;;;;;;;6.65;5.18;;;21.40;51.60;;;;;;5098194;28;20037;-72
2022/03/10 09:38:22;;;;;;;5.95;4.38;;;21.50;51.50;;;;;;5098457;28;20063;-73
2022/03/10 09:40:52;;;;;;;4.72;4.20;;;21.40;51.40;;;;;;5098652;28;20031;-73
2022/03/10 09:43:21;;;;;;;2.95;2.08;;;21.40;51.80;;;;;;5098641;28;20047;-73
2022/03/10 09:45:49;;;;;;;7.65;4.15;;;21.30;51.50;;;;;;5098637;28;20048;-71
2022/03/10 09:48:16;;;;;;;6.78;4.40;;;21.50;51.60;;;;;;5098406;28;20040;-71
2022/03/10 09:50:45;;;;;;;5.03;4.10;;;21.50;51.30;;;;;;5098384;28;20048;-71
2022/03/10 09:53:11;;;;;;;7.57;4.90;;;21.60;51.20;;;;;;5098516;28;20051;-71
2022/03/10 09:55:37;;;;;;;5.75;4.88;;;21.70;51.20;;;;;;5098520;28;20086;-71
2022/03/10 09:58:05;;;;;;;5.50;4.55;;;21.50;51.00;;;;;;5098103;28;20037;-72
2022/03/10 10:00:31;;;;;;;7.00;4.55;;;21.50;51.10;;;;;;5098042;28;20037;-73
2022/03/10 10:02:57;;;;;;;6.22;3.80;;;21.40;51.10;;;;;;5097872;28;20071;-73
2022/03/10 10:05:33;;;;;;;5.80;3.65;;;21.40;51.40;;;;;;5098083;28;20108;-72
2022/03/10 10:08:04;;;;;;;6.22;3.50;;;21.30;51.00;;;;;;5097823;28;20043;-74
2022/03/10 10:10:32;;;;;;;3.30;2.97;;;21.40;51.50;;;;;;5080879;28;20108;-73
2022/03/10 10:13:04;;;;;;;4.05;3.65;;;21.40;51.60;;;;;;5098017;28;20047;-72
2022/03/10 10:16:03;;;;;;;4.45;3.40;;;21.50;51.20;;;;;;5098142;28;20052;-73
2022/03/10 10:18:30;;;;;;;4.03;3.05;;;21.50;51.20;;;;;;5097789;28;20078;-72
2022/03/10 10:20:57;;;;;;;7.95;4.57;;;21.40;51.50;;;;;;5097960;28;20047;-71
2022/03/10 10:23:28;;;;;;;7.30;3.80;;;21.30;51.60;;;;;;5098048;28;20045;-72
2022/03/10 10:26:03;;;;;;;8.65;5.78;;;21.40;51.10;;;;;;5097687;28;20078;-72
2022/03/10 10:28:32;;;;;;;8.10;4.85;;;21.40;51.70;;;;;;5097730;28;20103;-71
2022/03/10 10:31:10;;;;;;;6.38;5.03;;;21.50;51.80;;;;;;5097663;28;20047;-71
2022/03/10 10:33:38;;;;;;;4.53;3.45;;;21.40;52.00;;;;;;5097459;28;20087;-72
2022/03/10 10:36:15;;;;;;;7.03;4.32;;;21.30;52.40;;;;;;5097480;28;20048;-72
2022/03/10 10:38:42;;;;;;;4.75;3.33;;;21.20;52.50;;;;;;5097381;28;20045;-71
2022/03/10 10:41:22;;;;;;;5.47;3.03;;;21.20;52.50;;;;;;5097315;28;20048;-72
2022/03/10 10:43:52;;;;;;;4.10;3.58;;;21.20;53.00;;;;;;5097499;28;20044;-72
2022/03/10 10:46:49;;;;;;;3.13;2.67;;;21.10;52.80;;;;;;5097266;28;20040;-72
2022/03/10 10:49:18;;;;;;;3.80;3.10;;;21.10;53.00;;;;;;5096568;28;20100;-70
2022/03/10 10:51:47;;;;;;;5.82;3.67;;;21.10;53.00;;;;;;5097750;28;20030;-70
2022/03/10 10:54:19;;;;;;;12.68;7.65;;;21.20;52.60;;;;;;5096706;28;20058;-71
2022/03/10 10:56:49;;;;;;;13.52;8.68;;;21.10;53.00;;;;;;5097230;28;20040;-72
2022/03/10 10:59:26;;;;;;;5.80;3.05;;;21.10;51.30;;;;;;5097107;28;20060;-72
2022/03/10 11:02:10;;;;;;;5.88;3.53;;;21.30;52.40;;;;;;5096854;28;20116;-69
2022/03/10 11:04:38;;;;;;;7.00;3.08;;;22.00;43.50;;;;;;5097295;28;20043;-69
2022/03/10 11:07:05;;;;;;;11.05;5.25;;;22.00;43.20;;;;;;5096941;28;20062;-69
2022/03/10 11:09:32;;;;;;;5.13;3.00;;;22.10;45.80;;;;;;5079605;28;20051;-69
2022/03/10 11:11:58;;;;;;;4.35;3.65;;;22.20;51.60;;;;;;5096820;28;20040;-68
2022/03/10 11:14:25;;;;;;;13.15;3.65;;;22.20;37.90;;;;;;5096017;28;20036;-69
2022/03/10 11:16:52;;;;;;;4.95;2.47;;;22.10;35.00;;;;;;5095680;28;20032;-69
2022/03/10 11:19:25;;;;;;;7.28;4.97;;;22.00;36.90;;;;;;5096592;28;20040;-68
2022/03/10 11:22:00;;;;;;;9.93;5.70;;;21.90;33.40;;;;;;5079083;28;20032;-68
2022/03/10 11:24:40;;;;;;;6.60;3.30;;;21.80;33.40;;;;;;5096113;28;20078;-68
2022/03/10 11:27:14;;;;;;;5.35;2.83;;;21.80;33.40;;;;;;5095935;28;20051;-69
2022/03/10 11:29:44;;;;;;;3.45;1.85;;;21.70;31.50;;;;;;5095353;28;20096;-68
2022/03/10 11:32:11;;;;;;;4.35;2.88;;;21.70;37.70;;;;;;5076387;28;20045;-68
2022/03/10 11:34:47;;;;;;;5.15;3.38;;;21.90;50.60;;;;;;5094350;28;20064;-68
2022/03/10 11:37:33;;;;;;;4.57;3.60;;;22.30;40.30;;;;;;5095868;28;20044;-69
2022/03/10 11:40:01;;;;;;;8.63;6.90;;;22.30;48.90;;;;;;5095672;28;20051;-68
2022/03/10 11:42:29;;;;;;;5.43;3.95;;;22.30;51.90;;;;;;5096068;28;20100;-68
2022/03/10 11:45:18;;;;;;;4.72;3.28;;;22.50;51.90;;;;;;5095995;28;20054;-69
2022/03/10 11:47:46;;;;;;;6.75;3.33;;;22.40;52.30;;;;;;5058627;28;20075;-69
2022/03/10 11:50:25;;;;;;;2.33;1.98;;;22.50;52.80;;;;;;5069873;28;20044;-69
2022/03/10 11:53:02;;;;;;;3.05;2.60;;;22.60;52.40;;;;;;5095843;28;20051;-70
2022/03/10 11:55:52;;;;;;;3.38;3.03;;;22.40;53.40;;;;;;5095902;28;20063;-69
2022/03/10 11:58:29;;;;;;;3.80;2.75;;;22.50;54.20;;;;;;5095610;28;20044;-70
2022/03/10 12:00:57;;;;;;;6.72;3.67;;;22.30;49.30;;;;;;5095420;28;20091;-69
2022/03/10 12:03:29;;;;;;;6.10;3.38;;;22.50;39.00;;;;;;5078219;28;20060;-70
2022/03/10 12:06:03;;;;;;;3.03;2.50;;;22.30;50.80;;;;;;5095649;28;20024;-70
2022/03/10 12:08:31;;;;;;;3.65;2.58;;;22.40;51.80;;;;;;5092669;28;20049;-70
2022/03/10 12:11:00;;;;;;;7.70;5.15;;;22.50;52.20;;;;;;5095760;28;20041;-70
2022/03/10 12:13:46;;;;;;;10.80;4.65;;;22.30;52.50;;;;;;5095220;28;20047;-71
2022/03/10 12:16:27;;;;;;;3.22;2.55;;;22.40;52.30;;;;;;5095911;28;20045;-70
2022/03/10 12:18:55;;;;;;;9.70;4.72;;;22.50;52.50;;;;;;5078068;28;20051;-70
2022/03/10 12:21:28;;;;;;;5.90;3.67;;;23.00;45.00;;;;;;5094862;28;20040;-68
2022/03/10 12:24:03;;;;;;;4.15;3.15;;;23.00;50.60;;;;;;5094608;28;20100;-69
2022/03/10 12:26:43;;;;;;;6.45;3.22;;;23.00;52.30;;;;;;5095178;28;20041;-69
2022/03/10 12:29:11;;;;;;;14.70;6.63;;;22.90;52.30;;;;;;5095531;28;20044;-68
2022/03/10 12:31:41;;;;;;;7.40;4.28;;;22.90;51.20;;;;;;5095168;28;20082;-69
2022/03/10 12:34:12;;;;;;;7.95;4.32;;;22.90;54.00;;;;;;5095642;28;20040;-69
2022/03/10 12:36:49;;;;;;;159.73;45.75;;;23.10;53.60;;;;;;5095310;28;20066;-69
2022/03/10 12:39:17;;;;;;;7.45;4.88;;;23.20;47.30;;;;;;5095201;28;20051;-70
2022/03/10 12:41:47;;;;;;;7.82;4.07;;;23.20;49.10;;;;;;5095603;28;20044;-70
2022/03/10 12:44:13;;;;;;;7.75;5.05;;;23.20;49.30;;;;;;5095363;28;20040;-69
2022/03/10 12:46:41;;;;;;;12.23;5.72;;;23.10;50.00;;;;;;5095391;28;20064;-69
2022/03/10 12:49:38;;;;;;;4.13;3.15;;;23.00;49.90;;;;;;5095439;28;20044;-69
2022/03/10 12:52:15;;;;;;;3.60;2.70;;;22.90;50.30;;;;;;5089080;28;20100;-71